Weather at Cagliari Elmas Airport

Public forecast

Using degrees Celsius for public forecast. Weather courtesy of forecast.io.

Current aviation weather report (METAR) for Cagliari Elmas Airport

2024/05/26 15:20 (retrieved 27 minutes ago)

LIEE 261520Z 15013KT CAVOK 24/16 Q1018

Aviation forecast (TAF) for Cagliari Elmas Airport

2024/05/26 12:21 (retrieved 3 hours ago)

TAF LIEE 261100Z 2612/2712 17010KT 9999 FEW040 BECMG 2617/2619 VRB05KT BECMG 2709/2711 17010KT